Time;durP1;ratioP1;P1;durP2;ratioP2;P2;SDS_P1;SDS_P2;PMS_P1;PMS_P2;Temp;Humidity;BMP_temperature;BMP_pressure;BME280_temperature;BME280_humidity;BME280_pressure;Samples;Min_cycle;Max_cycle;Signal;HPM_P1;HPM_P2
2023/05/30 00:02:07;;;;;;;12.63;2.72;;;;;;;10.42;100.00;102467.41;5266075;28;20037;-67
2023/05/30 00:04:39;;;;;;;15.90;3.72;;;;;;;10.38;100.00;102461.38;5266346;28;20051;-67
2023/05/30 00:07:11;;;;;;;10.77;2.67;;;;;;;10.36;100.00;102466.78;5269633;28;20033;-67
2023/05/30 00:09:42;;;;;;;12.00;3.22;;;;;;;10.30;100.00;102467.09;5272042;28;20379;-67
2023/05/30 00:12:16;;;;;;;13.50;3.22;;;;;;;10.21;100.00;102476.34;5267314;28;20477;-67
2023/05/30 00:14:47;;;;;;;11.55;2.78;;;;;;;10.20;100.00;102471.09;5270277;28;20032;-69
2023/05/30 00:17:20;;;;;;;11.88;2.83;;;;;;;10.17;100.00;102463.25;5272975;28;20509;-67
2023/05/30 00:19:54;;;;;;;13.73;2.85;;;;;;;10.14;100.00;102479.41;5268070;28;20025;-67
2023/05/30 00:22:25;;;;;;;15.20;4.22;;;;;;;10.10;100.00;102476.00;5268601;28;20087;-67
2023/05/30 00:24:59;;;;;;;18.33;3.88;;;;;;;10.12;100.00;102462.59;5267831;28;20067;-67
2023/05/30 00:27:30;;;;;;;13.55;3.00;;;;;;;10.13;100.00;102464.34;5277018;28;20046;-67
2023/05/30 00:30:03;;;;;;;14.80;3.15;;;;;;;9.99;100.00;102478.31;5267869;28;20444;-67
2023/05/30 00:32:34;;;;;;;13.25;3.03;;;;;;;9.95;100.00;102474.97;5266449;28;20106;-67
2023/05/30 00:35:06;;;;;;;13.13;3.40;;;;;;;9.91;100.00;102473.34;5273593;28;20040;-67
2023/05/30 00:37:38;;;;;;;16.60;3.63;;;;;;;10.02;100.00;102479.03;5269573;28;20025;-68
2023/05/30 00:40:09;;;;;;;14.20;3.70;;;;;;;9.97;100.00;102478.44;5276521;28;20129;-67
2023/05/30 00:42:41;;;;;;;17.55;4.20;;;;;;;9.96;100.00;102476.69;5270979;28;20079;-67
2023/05/30 00:45:12;;;;;;;19.17;3.55;;;;;;;9.89;100.00;102475.22;5271168;28;20463;-67
2023/05/30 00:47:43;;;;;;;14.27;3.03;;;;;;;9.86;100.00;102477.22;5263194;28;20483;-67
2023/05/30 00:50:16;;;;;;;11.55;2.92;;;;;;;9.82;100.00;102487.16;5272984;28;20102;-67
2023/05/30 00:52:48;;;;;;;14.40;3.05;;;;;;;9.78;100.00;102491.75;5265363;28;20434;-67
2023/05/30 00:55:20;;;;;;;15.95;3.65;;;;;;;9.73;100.00;102485.75;5271279;28;20037;-67
2023/05/30 00:57:52;;;;;;;18.17;3.65;;;;;;;9.69;100.00;102491.31;5268005;28;20151;-67
2023/05/30 01:00:26;;;;;;;13.57;3.60;;;;;;;9.62;100.00;102482.72;5266279;28;20127;-67
2023/05/30 01:02:59;;;;;;;13.38;2.90;;;;;;;9.70;100.00;102495.69;5268969;28;20470;-67
2023/05/30 01:05:31;;;;;;;13.70;3.92;;;;;;;9.59;100.00;102489.06;5272150;28;20198;-67
2023/05/30 01:08:02;;;;;;;13.32;3.38;;;;;;;9.60;100.00;102489.94;5268897;28;20119;-67
2023/05/30 01:10:34;;;;;;;14.90;3.75;;;;;;;9.53;100.00;102484.03;5271609;28;20061;-67
2023/05/30 01:13:15;;;;;;;12.85;3.28;;;;;;;9.51;100.00;102488.56;5271035;28;20081;-67
2023/05/30 01:16:16;;;;;;;13.57;3.33;;;;;;;9.49;100.00;102493.09;5269088;28;20040;-67
2023/05/30 01:19:04;;;;;;;19.13;5.13;;;;;;;9.57;100.00;102490.09;5267805;28;20136;-67
2023/05/30 01:21:37;;;;;;;16.40;3.95;;;;;;;9.41;100.00;102485.47;5272779;28;20024;-67
2023/05/30 01:24:36;;;;;;;13.93;3.58;;;;;;;9.42;100.00;102481.00;5272157;28;20030;-67
2023/05/30 01:27:17;;;;;;;13.18;3.38;;;;;;;9.37;100.00;102488.31;5274714;28;20032;-67
2023/05/30 01:29:50;;;;;;;16.23;3.38;;;;;;;9.31;100.00;102488.59;5273259;28;20032;-66
2023/05/30 01:32:22;;;;;;;19.00;4.40;;;;;;;9.31;100.00;102488.59;5275363;28;20095;-66
2023/05/30 01:34:57;;;;;;;15.80;3.80;;;;;;;9.28;100.00;102491.38;5274925;28;20302;-67
2023/05/30 01:37:28;;;;;;;16.30;3.60;;;;;;;9.25;100.00;102484.41;5278591;28;20028;-67
2023/05/30 01:40:00;;;;;;;18.05;3.67;;;;;;;9.23;100.00;102488.94;5271235;28;20792;-67
2023/05/30 01:42:32;;;;;;;14.40;3.90;;;;;;;9.21;100.00;102498.78;5272835;28;20024;-66
2023/05/30 01:45:12;;;;;;;16.65;4.05;;;;;;;9.25;100.00;102491.53;5264070;28;20025;-67
2023/05/30 01:48:00;;;;;;;15.45;3.20;;;;;;;9.28;100.00;102494.03;5261386;28;20064;-67
2023/05/30 01:50:40;;;;;;;16.98;3.50;;;;;;;9.28;100.00;102502.03;5258938;28;20043;-67
2023/05/30 01:53:17;;;;;;;12.85;3.83;;;;;;;9.28;100.00;102504.69;5262073;28;20032;-67
2023/05/30 01:55:53;;;;;;;17.27;3.80;;;;;;;9.19;100.00;102501.53;5263125;28;20047;-67
2023/05/30 01:58:25;;;;;;;17.85;4.25;;;;;;;9.26;100.00;102503.91;5264826;28;20054;-67
2023/05/30 02:00:58;;;;;;;17.50;4.05;;;;;;;9.26;100.00;102501.25;5264893;28;20020;-67
2023/05/30 02:03:31;;;;;;;13.73;3.35;;;;;;;9.15;100.00;102507.91;5265941;28;20032;-67
2023/05/30 02:06:02;;;;;;;19.58;3.97;;;;;;;9.13;100.00;102509.78;5265370;28;20159;-67
2023/05/30 02:08:34;;;;;;;17.42;4.70;;;;;;;9.12;100.00;102510.69;5268948;28;20044;-67
2023/05/30 02:11:05;;;;;;;16.23;3.70;;;;;;;9.09;100.00;102515.28;5274943;28;20110;-67
2023/05/30 02:13:36;;;;;;;14.43;3.70;;;;;;;9.08;100.00;102511.78;5277347;28;20467;-67
2023/05/30 02:16:08;;;;;;;19.38;3.97;;;;;;;9.08;100.00;102521.56;5281591;28;20447;-67
2023/05/30 02:18:41;;;;;;;14.70;3.53;;;;;;;8.96;100.00;102517.66;5273108;28;20033;-67
2023/05/30 02:21:12;;;;;;;18.63;3.95;;;;;;;8.92;100.00;102524.88;5268131;28;20016;-68
2023/05/30 02:23:44;;;;;;;13.77;3.53;;;;;;;9.01;100.00;102518.28;5272162;28;20028;-67
2023/05/30 02:26:15;;;;;;;16.40;3.75;;;;;;;8.89;100.00;102524.16;5269118;28;21210;-67
2023/05/30 02:28:46;;;;;;;19.48;4.60;;;;;;;8.87;100.00;102515.38;5265127;28;20570;-67
2023/05/30 02:31:18;;;;;;;16.73;3.60;;;;;;;8.83;100.00;102522.59;5269547;28;20119;-67
2023/05/30 02:33:49;;;;;;;21.10;5.28;;;;;;;8.80;100.00;102525.38;5273797;28;20024;-66
2023/05/30 02:36:21;;;;;;;13.68;3.97;;;;;;;8.78;100.00;102517.50;5264958;28;20046;-67
2023/05/30 02:38:53;;;;;;;19.48;4.32;;;;;;;8.78;100.00;102521.94;5265403;28;20059;-67
2023/05/30 02:41:25;;;;;;;14.98;3.97;;;;;;;8.73;100.00;102519.47;5268706;28;20028;-67
2023/05/30 02:43:57;;;;;;;17.15;4.43;;;;;;;8.74;100.00;102515.00;5269209;28;20086;-67
2023/05/30 02:46:28;;;;;;;16.23;4.10;;;;;;;8.72;100.00;102517.72;5268061;28;20058;-67
2023/05/30 02:49:00;;;;;;;16.83;4.43;;;;;;;8.69;100.00;102511.69;5264777;28;20122;-67
2023/05/30 02:51:32;;;;;;;12.55;3.63;;;;;;;8.62;100.00;102511.94;5268499;28;20037;-67
2023/05/30 02:54:03;;;;;;;15.32;4.13;;;;;;;8.63;100.00;102512.81;5263984;28;20082;-67
2023/05/30 02:56:35;;;;;;;19.17;4.05;;;;;;;8.64;100.00;102514.53;5260949;28;20051;-66
2023/05/30 02:59:06;;;;;;;13.50;4.00;;;;;;;8.63;100.00;102505.69;5262565;28;20397;-67
2023/05/30 03:01:38;;;;;;;17.85;4.60;;;;;;;8.57;100.00;102508.63;5269413;28;20542;-67
2023/05/30 03:04:10;;;;;;;14.27;3.88;;;;;;;8.57;100.00;102502.41;5265725;28;20185;-66
2023/05/30 03:06:41;;;;;;;20.13;4.07;;;;;;;8.55;100.00;102510.47;5262825;28;20110;-67
2023/05/30 03:09:13;;;;;;;24.42;4.63;;;;;;;8.53;100.00;102500.81;5264734;28;20036;-67
2023/05/30 03:11:45;;;;;;;17.58;3.97;;;;;;;8.51;100.00;102505.31;5264511;28;20564;-67
2023/05/30 03:14:16;;;;;;;19.98;4.68;;;;;;;8.52;100.00;102505.25;5271423;28;20029;-67
2023/05/30 03:16:48;;;;;;;17.20;4.38;;;;;;;8.49;100.00;102510.69;5266838;28;20035;-67
2023/05/30 03:19:20;;;;;;;15.52;4.38;;;;;;;8.50;100.00;102517.75;5271429;28;20025;-67
2023/05/30 03:21:51;;;;;;;14.45;3.67;;;;;;;8.51;100.00;102519.47;5272271;28;20116;-67
2023/05/30 03:24:23;;;;;;;15.48;3.97;;;;;;;8.50;100.00;102524.88;5272729;28;20028;-67
2023/05/30 03:26:54;;;;;;;15.82;4.97;;;;;;;8.54;100.00;102529.16;5268656;28;20502;-67
2023/05/30 03:29:27;;;;;;;14.88;4.35;;;;;;;8.59;100.00;102521.81;5267484;28;20545;-67
2023/05/30 03:31:59;;;;;;;13.30;4.30;;;;;;;8.59;100.00;102520.06;5264707;28;20028;-68
2023/05/30 03:34:31;;;;;;;21.35;5.30;;;;;;;8.64;100.00;102533.16;5285637;28;20043;-67
2023/05/30 03:37:02;;;;;;;18.52;5.80;;;;;;;8.67;100.00;102529.50;5270605;28;20036;-67
2023/05/30 03:39:33;;;;;;;14.18;4.43;;;;;;;8.69;100.00;102532.97;5268016;28;20036;-67
2023/05/30 03:42:06;;;;;;;20.20;5.45;;;;;;;8.78;100.00;102548.53;5266928;28;20031;-67
2023/05/30 03:44:37;;;;;;;18.63;4.82;;;;;;;8.73;100.00;102547.88;5264105;28;20120;-67
2023/05/30 03:47:08;;;;;;;20.67;5.65;;;;;;;8.72;100.00;102547.00;5273661;28;20062;-67
2023/05/30 03:49:40;;;;;;;22.33;4.90;;;;;;;8.81;100.00;102553.75;5270241;28;20464;-67
2023/05/30 03:52:11;;;;;;;13.68;5.18;;;;;;;8.89;100.00;102558.75;5281654;28;20036;-67
2023/05/30 03:54:43;;;;;;;15.70;4.63;;;;;;;8.89;100.00;102556.94;5268087;28;20025;-66
2023/05/30 03:57:15;;;;;;;16.85;5.30;;;;;;;8.90;100.00;102552.47;5276775;28;20489;-67
2023/05/30 03:59:47;;;;;;;17.48;4.65;;;;;;;8.97;100.00;102560.16;5271875;28;20024;-67
2023/05/30 04:02:19;;;;;;;18.88;5.22;;;;;;;8.97;100.00;102553.97;5271549;28;20029;-67
2023/05/30 04:04:50;;;;;;;15.98;4.60;;;;;;;9.01;100.00;102559.13;5266464;28;20099;-67
2023/05/30 04:07:23;;;;;;;16.60;4.18;;;;;;;9.00;100.00;102556.50;5269127;28;20495;-67
2023/05/30 04:09:54;;;;;;;14.25;4.50;;;;;;;9.00;100.00;102556.50;5269597;28;20100;-67
2023/05/30 04:12:25;;;;;;;18.13;4.82;;;;;;;8.99;100.00;102560.97;5263012;28;20467;-67
2023/05/30 04:14:57;;;;;;;18.08;4.78;;;;;;;9.02;100.00;102555.50;5266478;28;20028;-67
2023/05/30 04:17:30;;;;;;;16.80;4.47;;;;;;;9.08;100.00;102557.03;5266773;28;20047;-67
2023/05/30 04:20:04;;;;;;;20.73;4.93;;;;;;;9.25;100.00;102552.78;5266558;28;20029;-67
2023/05/30 04:22:35;;;;;;;14.82;4.80;;;;;;;9.18;100.00;102554.84;5265038;28;20035;-67
2023/05/30 04:25:07;;;;;;;13.73;4.55;;;;;;;9.20;100.00;102555.63;5265719;28;20059;-67
2023/05/30 04:27:40;;;;;;;20.83;4.72;;;;;;;9.23;100.00;102550.19;5259983;28;20025;-67
2023/05/30 04:30:11;;;;;;;16.42;4.88;;;;;;;9.28;100.00;102555.31;5257150;28;20097;-67
2023/05/30 04:32:45;;;;;;;14.27;4.32;;;;;;;9.31;100.00;102549.84;5261886;28;20051;-68
2023/05/30 04:35:16;;;;;;;18.98;5.05;;;;;;;9.33;100.00;102553.31;5264192;28;20115;-66
2023/05/30 04:37:48;;;;;;;15.45;4.47;;;;;;;9.46;100.00;102553.66;5263514;28;20028;-67
2023/05/30 04:40:20;;;;;;;17.02;5.15;;;;;;;9.43;100.00;102557.31;5263347;28;20921;-67
2023/05/30 04:42:52;;;;;;;17.67;4.75;;;;;;;9.46;100.00;102556.31;5262721;28;20617;-67
2023/05/30 04:45:28;;;;;;;12.43;4.35;;;;;;;9.50;100.00;102558.78;5259254;28;20035;-67
2023/05/30 04:48:00;;;;;;;15.50;4.75;;;;;;;9.54;100.00;102560.34;5259970;28;20029;-67
2023/05/30 04:50:31;;;;;;;19.20;5.05;;;;;;;9.66;100.00;102558.06;5272333;28;20032;-67
2023/05/30 04:53:03;;;;;;;20.98;4.97;;;;;;;9.67;100.00;102550.03;5263183;28;20017;-67
2023/05/30 04:55:34;;;;;;;17.92;4.85;;;;;;;9.69;100.00;102552.63;5262151;28;20032;-67
2023/05/30 04:58:06;;;;;;;15.93;5.10;;;;;;;9.71;100.00;102548.94;5261748;28;20032;-67
2023/05/30 05:00:38;;;;;;;18.27;5.72;;;;;;;9.75;100.00;102547.88;5262465;28;20513;-67
2023/05/30 05:03:10;;;;;;;15.52;5.60;;;;;;;9.79;100.00;102551.25;5266201;28;20024;-67
2023/05/30 05:05:41;;;;;;;18.73;5.05;;;;;;;9.82;100.00;102561.78;5264623;28;20551;-67
2023/05/30 05:08:12;;;;;;;18.65;5.93;;;;;;;9.91;100.00;102552.50;5262878;28;20024;-67
2023/05/30 05:10:44;;;;;;;16.10;5.00;;;;;;;9.90;100.00;102551.63;5271508;28;20391;-67
2023/05/30 05:13:15;;;;;;;16.35;5.22;;;;;;;9.97;100.00;102550.41;5275642;28;20417;-67
2023/05/30 05:15:47;;;;;;;18.00;5.75;;;;;;;10.12;100.00;102558.63;5273717;28;20056;-67
2023/05/30 05:18:18;;;;;;;14.05;4.88;;;;;;;10.09;100.00;102556.13;5274525;28;20739;-67
2023/05/30 05:20:50;;;;;;;16.17;5.05;;;;;;;10.15;100.00;102555.81;5272208;28;20099;-67
2023/05/30 05:23:23;;;;;;;17.27;5.18;;;;;;;10.25;100.00;102554.44;5275833;28;20381;-67
2023/05/30 05:25:55;;;;;;;13.60;4.80;;;;;;;10.29;100.00;102557.81;5267453;28;20112;-67
2023/05/30 05:28:27;;;;;;;16.00;5.35;;;;;;;10.33;100.00;102548.75;5266671;28;20410;-69
2023/05/30 05:30:58;;;;;;;20.08;5.30;;;;;;;10.38;100.00;102554.75;5275155;28;20024;-67
2023/05/30 05:33:29;;;;;;;19.23;5.68;;;;;;;10.44;100.00;102556.25;5273965;28;20032;-67
2023/05/30 05:36:02;;;;;;;15.52;5.07;;;;;;;10.44;100.00;102556.25;5278412;28;20141;-67
2023/05/30 05:38:33;;;;;;;13.90;5.03;;;;;;;10.50;100.00;102554.16;5271789;28;20522;-67
2023/05/30 05:41:05;;;;;;;19.90;6.07;;;;;;;10.56;100.00;102552.97;5280703;28;20137;-68
2023/05/30 05:43:37;;;;;;;16.70;5.32;;;;;;;10.65;100.00;102557.03;5271821;28;20032;-67
2023/05/30 05:46:08;;;;;;;17.35;5.50;;;;;;;10.67;100.00;102553.31;5272000;28;20474;-67
2023/05/30 05:48:39;;;;;;;14.07;4.70;;;;;;;10.81;100.00;102549.09;5272414;28;20085;-67
2023/05/30 05:51:11;;;;;;;17.67;5.68;;;;;;;10.80;100.00;102553.59;5274254;28;20028;-67
2023/05/30 05:53:43;;;;;;;14.77;5.90;;;;;;;10.82;100.00;102553.53;5266665;28;20462;-67
2023/05/30 05:56:14;;;;;;;13.15;5.15;;;;;;;10.88;100.00;102558.53;5269331;28;20035;-67
2023/05/30 05:58:46;;;;;;;17.95;5.43;;;;;;;10.92;100.00;102563.63;5275256;28;20078;-67
2023/05/30 06:01:17;;;;;;;15.75;6.15;;;;;;;10.91;100.00;102567.28;5265446;28;20516;-67
2023/05/30 06:03:48;;;;;;;14.13;5.80;;;;;;;10.97;100.00;102564.28;5270777;28;20070;-68
2023/05/30 06:06:20;;;;;;;12.25;5.05;;;;;;;11.05;100.00;102569.22;5273153;28;20493;-67
2023/05/30 06:08:51;;;;;;;15.48;5.32;;;;;;;11.03;100.00;102555.09;5270803;28;20120;-66
2023/05/30 06:11:22;;;;;;;19.15;6.20;;;;;;;11.06;100.00;102570.09;5274374;28;20063;-67
2023/05/30 06:13:54;;;;;;;15.05;5.70;;;;;;;11.06;100.00;102570.94;5279993;28;20401;-68
2023/05/30 06:16:25;;;;;;;16.67;6.20;;;;;;;11.07;100.00;102566.50;5271101;28;20103;-67
2023/05/30 06:18:56;;;;;;;16.48;5.28;;;;;;;11.09;100.00;102570.81;5269841;28;20056;-67
2023/05/30 06:21:28;;;;;;;19.60;5.78;;;;;;;11.12;100.00;102567.09;5276353;28;20025;-67
2023/05/30 06:23:59;;;;;;;16.98;4.97;;;;;;;11.15;100.00;102564.28;5275512;28;20024;-67
2023/05/30 06:26:31;;;;;;;15.93;5.45;;;;;;;11.19;100.00;102563.19;5277379;28;20031;-67
2023/05/30 06:29:02;;;;;;;18.48;5.50;;;;;;;11.24;100.00;102568.28;5276154;28;20021;-67
2023/05/30 06:31:34;;;;;;;15.50;5.53;;;;;;;11.26;100.00;102566.41;5270122;28;20037;-67
2023/05/30 06:34:05;;;;;;;22.98;6.35;;;;;;;11.32;100.00;102571.44;5276894;28;20580;-67
2023/05/30 06:36:37;;;;;;;15.77;5.50;;;;;;;11.38;100.00;102573.78;5274188;28;20059;-67
2023/05/30 06:39:15;;;;;;;16.73;5.65;;;;;;;11.45;100.00;102571.63;5280002;28;20012;-67
2023/05/30 06:41:47;;;;;;;16.30;5.68;;;;;;;11.46;100.00;102568.03;5273382;28;20020;-67
2023/05/30 06:44:18;;;;;;;17.50;5.70;;;;;;;11.52;100.00;102573.91;5270861;28;20037;-67
2023/05/30 06:46:50;;;;;;;12.10;5.63;;;;;;;11.57;100.00;102579.03;5267979;28;20025;-67
2023/05/30 06:49:21;;;;;;;14.23;5.28;;;;;;;11.58;100.00;102570.03;5278584;28;20046;-67
2023/05/30 06:51:52;;;;;;;14.30;5.78;;;;;;;11.67;100.00;102566.03;5269435;28;20356;-67
2023/05/30 06:54:24;;;;;;;12.77;5.40;;;;;;;11.72;100.00;102574.69;5272415;28;20036;-67
2023/05/30 06:57:00;;;;;;;13.48;4.97;;;;;;;11.84;100.00;102582.03;5272769;28;20024;-67
2023/05/30 06:59:33;;;;;;;12.13;5.43;;;;;;;11.88;100.00;102588.06;5267764;28;20087;-67
2023/05/30 07:02:04;;;;;;;13.80;5.65;;;;;;;11.96;100.00;102572.50;5274704;28;20025;-67
2023/05/30 07:04:36;;;;;;;12.50;5.38;;;;;;;12.00;100.00;102589.25;5280082;28;20756;-67
2023/05/30 07:07:09;;;;;;;16.45;5.80;;;;;;;12.03;100.00;102581.94;5274521;28;20024;-67
2023/05/30 07:09:40;;;;;;;13.07;5.63;;;;;;;12.06;100.00;102588.91;5277628;28;20103;-67
2023/05/30 07:12:12;;;;;;;10.57;5.05;;;;;;;12.05;100.00;102592.56;5283297;28;20154;-67
2023/05/30 07:14:43;;;;;;;13.77;5.85;;;;;;;12.08;100.00;102589.69;5274942;28;20347;-67
2023/05/30 07:17:15;;;;;;;15.27;5.93;;;;;;;12.22;100.00;102587.13;5284688;28;20036;-67
2023/05/30 07:19:46;;;;;;;13.45;5.40;;;;;;;12.30;100.00;102590.22;5272371;28;20016;-67
2023/05/30 07:22:17;;;;;;;13.68;5.60;;;;;;;12.50;100.00;102582.88;5286897;28;20020;-68
2023/05/30 07:24:49;;;;;;;12.45;5.30;;;;;;;12.72;100.00;102595.94;5269512;28;20029;-67
2023/05/30 07:27:20;;;;;;;14.05;6.70;;;;;;;12.87;100.00;102586.16;5266964;28;20037;-67
2023/05/30 07:29:52;;;;;;;12.57;6.50;;;;;;;12.83;100.00;102590.81;5271338;28;20032;-67
2023/05/30 07:32:23;;;;;;;12.02;5.78;;;;;;;12.88;100.00;102582.50;5270533;28;20028;-67
2023/05/30 07:34:55;;;;;;;13.80;5.70;;;;;;;12.91;100.00;102598.41;5271762;28;20086;-68
2023/05/30 07:37:26;;;;;;;11.65;6.05;;;;;;;12.84;100.00;102594.34;5277335;28;20040;-67
2023/05/30 07:40:05;;;;;;;11.95;5.82;;;;;;;12.75;100.00;102601.97;5272279;28;20455;-67
2023/05/30 07:42:39;;;;;;;11.18;5.32;;;;;;;12.73;100.00;102603.00;5271407;28;20067;-67
2023/05/30 07:45:10;;;;;;;13.75;5.60;;;;;;;12.69;100.00;102601.44;5270946;28;20048;-67
2023/05/30 07:47:42;;;;;;;16.60;6.20;;;;;;;12.75;100.00;102599.28;5276270;28;20021;-67
2023/05/30 07:50:13;;;;;;;14.07;5.78;;;;;;;12.89;100.00;102601.16;5267921;28;20375;-67
2023/05/30 07:52:45;;;;;;;15.27;5.72;;;;;;;12.86;100.00;102600.47;5265950;28;20100;-67
2023/05/30 07:55:16;;;;;;;10.40;6.03;;;;;;;13.01;100.00;102594.22;5281405;28;20082;-67
2023/05/30 07:57:47;;;;;;;15.73;6.30;;;;;;;13.26;100.00;102590.09;5274085;28;20031;-68
2023/05/30 08:00:19;;;;;;;13.18;5.93;;;;;;;13.36;100.00;102577.88;5272885;28;20391;-67
2023/05/30 08:02:50;;;;;;;11.75;6.05;;;;;;;13.51;100.00;102576.94;5274143;28;20024;-67
2023/05/30 08:05:21;;;;;;;11.40;5.68;;;;;;;13.69;100.00;102580.34;5274620;28;20052;-67
2023/05/30 08:07:53;;;;;;;12.90;5.50;;;;;;;13.61;100.00;102585.28;5276336;28;20109;-67
2023/05/30 08:10:24;;;;;;;11.27;6.40;;;;;;;13.63;100.00;102587.88;5274785;28;20117;-67
2023/05/30 08:12:56;;;;;;;10.20;5.75;;;;;;;13.55;100.00;102585.66;5270788;28;20346;-67
2023/05/30 08:15:27;;;;;;;12.50;5.70;;;;;;;13.47;100.00;102574.56;5264087;28;20070;-67
2023/05/30 08:18:00;;;;;;;14.10;5.82;;;;;;;13.42;100.00;102580.19;5260864;28;20487;-67
2023/05/30 08:20:31;;;;;;;11.85;5.75;;;;;;;13.39;100.00;102587.56;5273167;28;20048;-68
2023/05/30 08:23:03;;;;;;;12.43;5.90;;;;;;;13.41;100.00;102577.63;5269306;28;20047;-67
2023/05/30 08:25:36;;;;;;;12.57;5.32;;;;;;;13.44;100.00;102585.47;5263813;28;20036;-67
2023/05/30 08:28:07;;;;;;;13.27;5.90;;;;;;;13.55;100.00;102582.97;5272334;28;20363;-67
2023/05/30 08:30:42;;;;;;;12.15;6.00;;;;;;;13.61;100.00;102581.75;5273454;28;20027;-68
2023/05/30 08:33:14;;;;;;;16.25;5.63;;;;;;;13.61;100.00;102584.44;5262376;28;20025;-68
2023/05/30 08:35:46;;;;;;;13.73;5.75;;;;;;;13.66;100.00;102576.97;5271642;28;20055;-67
2023/05/30 08:38:17;;;;;;;13.02;5.65;;;;;;;13.64;100.00;102576.22;5266499;28;20577;-67
2023/05/30 08:40:51;;;;;;;13.55;6.35;;;;;;;13.62;100.00;102575.44;5271225;28;20021;-67
2023/05/30 08:43:22;;;;;;;11.23;5.72;;;;;;;13.72;100.00;102572.06;5268686;28;20482;-67
2023/05/30 08:45:55;;;;;;;12.02;5.57;;;;;;;13.76;100.00;102571.91;5263160;28;20086;-68
2023/05/30 08:48:31;;;;;;;13.27;6.97;;;;;;;13.80;100.00;102560.00;5264327;28;20028;-67
2023/05/30 08:51:04;;;;;;;14.60;6.07;;;;;;;13.96;100.00;102565.25;5276942;28;20029;-67
2023/05/30 08:53:42;;;;;;;12.27;5.75;;;;;;;13.92;100.00;102564.59;5261303;28;20025;-67
2023/05/30 08:56:23;;;;;;;10.07;5.72;;;;;;;14.04;100.00;102557.59;5265685;28;20099;-68
2023/05/30 08:58:57;;;;;;;11.18;6.22;;;;;;;14.09;100.00;102561.72;5279506;28;20020;-67
2023/05/30 09:01:29;;;;;;;;;;;;;;;14.24;100.00;102561.69;5266430;28;20391;-68
2023/05/30 09:04:03;;;;;;;11.07;5.63;;;;;;;14.31;100.00;102558.50;5289487;28;19912;-66
2023/05/30 09:06:36;;;;;;;11.57;5.78;;;;;;;14.43;100.00;102558.66;5274380;28;20032;-68
2023/05/30 09:09:09;;;;;;;12.35;5.63;;;;;;;14.51;100.00;102554.50;5270376;28;20035;-67
2023/05/30 09:11:42;;;;;;;14.57;7.57;;;;;;;14.51;100.00;102551.81;5266139;28;20025;-67
2023/05/30 09:14:14;;;;;;;10.18;5.90;;;;;;;14.62;100.00;102552.97;5268437;28;20039;-67
2023/05/30 09:16:46;;;;;;;14.32;6.43;;;;;;;14.65;100.00;102550.94;5262653;28;20028;-67
2023/05/30 09:19:17;;;;;;;14.00;6.57;;;;;;;14.75;100.00;102553.03;5266837;28;20072;-67
2023/05/30 09:21:50;;;;;;;11.07;6.45;;;;;;;14.84;100.00;102547.00;5265487;28;20027;-67
2023/05/30 09:24:21;;;;;;;11.93;5.97;;;;;;;15.03;100.00;102547.50;5267480;28;20025;-67
2023/05/30 09:26:58;;;;;;;12.38;6.07;;;;;;;15.13;100.00;102538.78;5261591;28;20063;-68
2023/05/30 09:29:42;;;;;;;14.63;7.07;;;;;;;15.20;100.00;102537.41;5273802;28;20119;-68
2023/05/30 09:32:14;;;;;;;13.23;6.50;;;;;;;15.17;100.00;102533.13;5275509;28;20028;-68
2023/05/30 09:34:56;;;;;;;13.82;6.93;;;;;;;15.18;100.00;102534.81;5271963;28;20031;-68
2023/05/30 09:37:43;;;;;;;13.85;6.63;;;;;;;15.27;100.00;102536.88;5284012;28;20028;-67
2023/05/30 09:40:17;;;;;;;13.90;6.78;;;;;;;15.36;100.00;102534.50;5269773;28;20029;-68
2023/05/30 09:42:51;;;;;;;12.05;6.50;;;;;;;15.35;100.00;102533.66;5268671;28;20024;-68
2023/05/30 09:45:23;;;;;;;;;;;;;;;15.47;100.00;102523.84;5277100;28;20409;-68
2023/05/30 09:47:54;;;;;;;13.50;7.22;;;;;;;15.42;100.00;102526.88;5277842;28;19912;-67
2023/05/30 09:50:26;;;;;;;12.32;6.75;;;;;;;15.45;100.00;102532.03;5269641;28;20090;-68
2023/05/30 09:52:59;;;;;;;14.93;7.00;;;;;;;15.53;100.00;102531.50;5274538;28;20111;-68
2023/05/30 09:55:31;;;;;;;13.68;6.45;;;;;;;15.47;100.00;102538.19;5273258;28;20406;-68
2023/05/30 09:58:02;;;;;;;14.45;7.43;;;;;;;15.52;100.00;102529.78;5274653;28;20032;-68
2023/05/30 10:00:33;;;;;;;11.95;7.20;;;;;;;15.52;100.00;102523.56;5269265;28;20451;-68
2023/05/30 10:03:05;;;;;;;13.68;6.95;;;;;;;15.59;100.00;102525.69;5279588;28;20043;-68
2023/05/30 10:05:37;;;;;;;13.27;6.80;;;;;;;15.84;100.00;102518.59;5275306;28;20110;-68
2023/05/30 10:08:10;;;;;;;10.75;6.55;;;;;;;15.94;100.00;102516.09;5273356;28;20111;-68
2023/05/30 10:10:42;;;;;;;13.18;7.47;;;;;;;16.02;100.00;102516.38;5269234;28;20032;-68
2023/05/30 10:13:13;;;;;;;12.18;7.53;;;;;;;16.15;100.00;102519.06;5272610;28;20819;-68
2023/05/30 10:15:44;;;;;;;14.77;6.90;;;;;;;16.15;100.00;102514.53;5276360;28;20394;-68
2023/05/30 10:18:17;;;;;;;16.73;7.82;;;;;;;16.25;100.00;102515.56;5265254;28;20024;-68
2023/05/30 10:20:49;;;;;;;16.08;7.22;;;;;;;16.25;100.00;102512.84;5280424;28;20052;-68
2023/05/30 10:23:20;;;;;;;14.57;7.80;;;;;;;16.32;100.00;102513.28;5269673;28;20111;-68
2023/05/30 10:25:56;;;;;;;13.60;7.28;;;;;;;16.46;100.00;102512.25;5272779;28;20036;-70
2023/05/30 10:28:29;;;;;;;12.45;7.63;;;;;;;16.42;100.00;102522.38;5270757;28;20120;-68
2023/05/30 10:31:03;;;;;;;13.57;7.27;;;;;;;16.47;100.00;102516.63;5267061;28;20462;-68
2023/05/30 10:33:37;;;;;;;14.20;7.50;;;;;;;16.60;100.00;102512.03;5272903;28;20676;-68
2023/05/30 10:36:08;;;;;;;15.82;7.43;;;;;;;16.60;100.00;102503.09;5278688;28;20471;-68
2023/05/30 10:38:50;;;;;;;14.07;7.28;;;;;;;16.71;100.00;102503.16;5272963;28;20049;-68
2023/05/30 10:41:33;;;;;;;12.30;6.70;;;;;;;16.79;100.00;102508.81;5266197;28;20116;-68
2023/05/30 10:44:35;;;;;;;13.65;7.15;;;;;;;16.92;100.00;102503.38;5274891;28;21740;-68
2023/05/30 10:47:15;;;;;;;13.27;8.25;;;;;;;16.79;100.00;102494.47;5255423;28;20032;-68
2023/05/30 10:49:49;;;;;;;17.52;7.85;;;;;;;16.86;100.00;102493.06;5276012;28;20551;-68
2023/05/30 10:52:31;;;;;;;12.82;8.05;;;;;;;16.79;100.00;102491.78;5272703;28;20025;-67
2023/05/30 10:55:10;;;;;;;14.27;7.50;;;;;;;17.01;100.00;102489.19;5270850;28;20090;-67
2023/05/30 10:57:42;;;;;;;18.30;7.68;;;;;;;17.03;100.00;102481.84;5268005;28;20028;-67
2023/05/30 11:00:26;;;;;;;13.20;6.82;;;;;;;17.03;100.00;102489.06;5264877;28;20060;-68
2023/05/30 11:02:57;;;;;;;13.88;6.78;;;;;;;17.12;100.00;102477.53;5266383;28;20043;-67
2023/05/30 11:05:32;;;;;;;12.38;7.43;;;;;;;17.09;100.00;102485.03;5267724;28;20499;-68
2023/05/30 11:08:04;;;;;;;12.90;7.38;;;;;;;17.01;100.00;102475.72;5278782;28;20035;-67
2023/05/30 11:10:35;;;;;;;13.68;7.63;;;;;;;17.12;100.00;102484.78;5270557;28;20028;-67
2023/05/30 11:13:11;;;;;;;14.73;7.32;;;;;;;17.16;100.00;102472.78;5272756;28;20034;-68
2023/05/30 11:15:45;;;;;;;13.05;7.38;;;;;;;17.27;100.00;102469.25;5269343;28;20420;-68
2023/05/30 11:18:18;;;;;;;15.38;7.47;;;;;;;17.31;100.00;102474.25;5268012;28;20067;-68
2023/05/30 11:20:56;;;;;;;15.43;7.22;;;;;;;17.36;100.00;102472.06;5276340;28;20031;-68
2023/05/30 11:23:29;;;;;;;12.30;6.68;;;;;;;17.50;100.00;102470.94;5273228;28;20032;-68
2023/05/30 11:26:00;;;;;;;13.15;7.40;;;;;;;17.42;100.00;102460.78;5269848;28;20505;-67
2023/05/30 11:28:36;;;;;;;12.57;6.50;;;;;;;17.66;100.00;102467.91;5279728;28;20044;-68
2023/05/30 11:31:16;;;;;;;14.25;7.15;;;;;;;17.72;100.00;102472.81;5282905;28;20028;-68
2023/05/30 11:33:51;;;;;;;18.52;7.25;;;;;;;17.81;100.00;102465.78;5275308;28;20094;-68
2023/05/30 11:36:22;;;;;;;12.02;7.07;;;;;;;17.82;100.00;102460.25;5262026;28;20043;-68
2023/05/30 11:38:56;;;;;;;12.80;5.95;;;;;;;17.96;100.00;102455.59;5270766;28;20036;-70
2023/05/30 11:41:28;;;;;;;;;;;;;;;18.01;100.00;102445.28;5270744;28;20439;-68